Time;durP1;ratioP1;P1;durP2;ratioP2;P2;SDS_P1;SDS_P2;PMS_P1;PMS_P2;Temp;Humidity;BMP_temperature;BMP_pressure;BME280_temperature;BME280_humidity;BME280_pressure;Samples;Min_cycle;Max_cycle;Signal;HPM_P1;HPM_P2
2022/07/30 00:01:14;;;;;;;0.40;0.40;;;;;;;;;;1840888;74;26277;-85
2022/07/30 00:03:41;;;;;;;0.50;0.50;;;;;;;;;;1849619;75;26769;-85
2022/07/30 00:06:08;;;;;;;0.50;0.50;;;;;;;;;;1874223;74;26763;-84
2022/07/30 00:08:36;;;;;;;0.40;0.40;;;;;;;;;;1867660;74;26683;-84
2022/07/30 00:11:03;;;;;;;0.40;0.40;;;;;;;;;;1880954;75;26641;-84
2022/07/30 00:13:30;;;;;;;0.50;0.50;;;;;;;;;;1841470;75;26294;-84
2022/07/30 00:15:57;;;;;;;0.40;0.40;;;;;;;;;;1866939;75;26244;-85
2022/07/30 00:18:25;;;;;;;0.50;0.50;;;;;;;;;;1853183;75;26349;-85
2022/07/30 00:20:52;;;;;;;0.42;0.42;;;;;;;;;;1850113;75;26315;-85
2022/07/30 00:23:19;;;;;;;0.47;0.47;;;;;;;;;;1880836;75;26761;-85
2022/07/30 00:25:46;;;;;;;0.40;0.40;;;;;;;;;;1871450;75;26225;-84
2022/07/30 00:28:14;;;;;;;0.55;0.55;;;;;;;;;;1855413;75;26229;-85
2022/07/30 00:30:41;;;;;;;0.40;0.40;;;;;;;;;;1869191;75;26232;-84
2022/07/30 00:33:08;;;;;;;0.40;0.40;;;;;;;;;;1875268;75;26270;-85
2022/07/30 00:35:36;;;;;;;0.50;0.50;;;;;;;;;;1864102;75;26724;-84
2022/07/30 00:38:03;;;;;;;0.50;0.50;;;;;;;;;;1869343;75;26218;-84
2022/07/30 00:40:30;;;;;;;0.40;0.40;;;;;;;;;;1849827;75;26315;-85
2022/07/30 00:42:57;;;;;;;0.50;0.50;;;;;;;;;;1871517;74;26677;-84
2022/07/30 00:45:26;;;;;;;0.40;0.40;;;;;;;;;;1863515;75;27111;-85
2022/07/30 00:47:53;;;;;;;0.50;0.50;;;;;;;;;;1852094;75;26924;-84
2022/07/30 00:50:21;;;;;;;0.40;0.40;;;;;;;;;;1863988;75;27088;-85
2022/07/30 00:52:48;;;;;;;0.42;0.42;;;;;;;;;;1856555;76;26249;-85
2022/07/30 00:55:15;;;;;;;0.50;0.50;;;;;;;;;;1871727;74;26223;-85
2022/07/30 00:57:42;;;;;;;0.50;0.50;;;;;;;;;;1870839;75;26694;-85
2022/07/30 01:00:11;;;;;;;0.50;0.50;;;;;;;;;;1874108;75;26653;-85
2022/07/30 01:02:38;;;;;;;0.40;0.40;;;;;;;;;;1862716;76;26292;-85
2022/07/30 01:05:06;;;;;;;0.47;0.47;;;;;;;;;;1867801;76;26303;-84
2022/07/30 01:07:34;;;;;;;0.50;0.50;;;;;;;;;;1857049;75;26299;-84
2022/07/30 01:10:03;;;;;;;0.30;0.30;;;;;;;;;;1864848;75;26288;-84
2022/07/30 01:12:31;;;;;;;0.37;0.37;;;;;;;;;;1862064;75;26249;-85
2022/07/30 01:14:59;;;;;;;0.40;0.40;;;;;;;;;;1858721;74;26272;-85
2022/07/30 01:17:27;;;;;;;0.40;0.40;;;;;;;;;;1858602;75;26247;-85
2022/07/30 01:19:57;;;;;;;0.50;0.50;;;;;;;;;;1857994;75;26288;-85
2022/07/30 01:22:44;;;;;;;0.42;0.42;;;;;;;;;;1850009;75;26268;-85
2022/07/30 01:25:21;;;;;;;0.40;0.40;;;;;;;;;;1864745;75;26743;-84
2022/07/30 01:27:53;;;;;;;0.40;0.40;;;;;;;;;;1872120;75;26227;-84
2022/07/30 01:30:22;;;;;;;0.50;0.50;;;;;;;;;;1860982;75;26319;-84
2022/07/30 01:32:51;;;;;;;0.40;0.40;;;;;;;;;;1851972;75;26908;-84
2022/07/30 01:35:20;;;;;;;0.40;0.40;;;;;;;;;;1863452;75;26298;-84
2022/07/30 01:37:48;;;;;;;0.50;0.50;;;;;;;;;;1862085;74;26247;-85
2022/07/30 01:40:16;;;;;;;0.50;0.50;;;;;;;;;;1852089;75;26256;-84
2022/07/30 01:42:44;;;;;;;0.40;0.40;;;;;;;;;;1882362;75;26297;-85
2022/07/30 01:45:12;;;;;;;0.47;0.47;;;;;;;;;;1870783;75;26262;-85
2022/07/30 01:47:42;;;;;;;0.40;0.40;;;;;;;;;;1860656;75;26211;-84
2022/07/30 01:50:16;;;;;;;0.50;0.50;;;;;;;;;;1845842;76;26264;-85
2022/07/30 01:52:44;;;;;;;0.50;0.50;;;;;;;;;;1852375;75;26288;-84
2022/07/30 01:55:13;;;;;;;0.40;0.40;;;;;;;;;;1859172;75;26671;-85
2022/07/30 01:57:41;;;;;;;0.40;0.40;;;;;;;;;;1835708;75;26670;-85
2022/07/30 02:00:08;;;;;;;0.40;0.40;;;;;;;;;;1850837;74;26388;-85
2022/07/30 02:02:37;;;;;;;0.40;0.40;;;;;;;;;;1851510;75;26304;-84
2022/07/30 02:05:04;;;;;;;0.40;0.40;;;;;;;;;;1886859;75;26307;-84
2022/07/30 02:07:33;;;;;;;0.30;0.30;;;;;;;;;;1868387;74;26209;-85
2022/07/30 02:10:14;;;;;;;0.50;0.50;;;;;;;;;;1879874;74;26301;-84
2022/07/30 02:12:43;;;;;;;0.50;0.50;;;;;;;;;;1879307;74;26292;-85
2022/07/30 02:15:11;;;;;;;0.50;0.50;;;;;;;;;;1871898;75;26227;-84
2022/07/30 02:17:43;;;;;;;0.40;0.40;;;;;;;;;;1894421;75;26674;-85
2022/07/30 02:20:12;;;;;;;0.50;0.50;;;;;;;;;;1875691;74;26268;-85
2022/07/30 02:22:40;;;;;;;0.40;0.40;;;;;;;;;;1881488;74;26319;-85
2022/07/30 02:25:09;;;;;;;0.50;0.50;;;;;;;;;;1888561;74;26695;-85
2022/07/30 02:27:38;;;;;;;0.33;0.33;;;;;;;;;;1872520;74;26767;-85
2022/07/30 02:30:06;;;;;;;0.55;0.55;;;;;;;;;;1909555;74;26225;-85
2022/07/30 02:32:35;;;;;;;0.47;0.47;;;;;;;;;;1898929;74;26238;-84
2022/07/30 02:35:04;;;;;;;0.45;0.45;;;;;;;;;;1874659;75;26303;-85
2022/07/30 02:37:32;;;;;;;0.70;0.47;;;;;;;;;;1870538;75;26662;-85
2022/07/30 02:39:59;;;;;;;0.40;0.40;;;;;;;;;;1869988;74;26250;-85
2022/07/30 02:42:28;;;;;;;0.53;0.53;;;;;;;;;;1882756;74;26218;-85
2022/07/30 02:44:56;;;;;;;0.42;0.42;;;;;;;;;;1885132;75;26210;-84
2022/07/30 02:47:25;;;;;;;0.50;0.50;;;;;;;;;;1832650;76;26214;-83
2022/07/30 02:49:53;;;;;;;0.30;0.30;;;;;;;;;;1868678;75;26253;-84
2022/07/30 02:52:21;;;;;;;0.40;0.40;;;;;;;;;;1880259;75;26365;-85
2022/07/30 02:54:50;;;;;;;0.53;0.53;;;;;;;;;;1861112;74;26254;-84
2022/07/30 02:57:18;;;;;;;0.40;0.40;;;;;;;;;;1898075;74;26217;-85
2022/07/30 02:59:47;;;;;;;0.40;0.40;;;;;;;;;;1881670;74;26846;-85
2022/07/30 03:02:14;;;;;;;0.57;0.50;;;;;;;;;;1881515;74;26295;-85
2022/07/30 03:04:42;;;;;;;0.50;0.50;;;;;;;;;;1872390;75;26229;-85
2022/07/30 03:07:10;;;;;;;0.42;0.42;;;;;;;;;;1871080;74;26266;-85
2022/07/30 03:09:38;;;;;;;0.50;0.50;;;;;;;;;;1871181;75;26249;-85
2022/07/30 03:12:07;;;;;;;0.33;0.33;;;;;;;;;;1881430;74;26245;-84
2022/07/30 03:14:34;;;;;;;1.85;0.50;;;;;;;;;;1876258;75;26262;-85
2022/07/30 03:17:02;;;;;;;1.30;0.40;;;;;;;;;;1880062;75;26607;-85
2022/07/30 03:19:31;;;;;;;0.40;0.40;;;;;;;;;;1881727;75;26419;-85
2022/07/30 03:22:00;;;;;;;0.50;0.50;;;;;;;;;;1862886;75;26214;-85
2022/07/30 03:24:28;;;;;;;0.50;0.50;;;;;;;;;;1879116;75;26246;-85
2022/07/30 03:26:56;;;;;;;0.57;0.57;;;;;;;;;;1872888;75;26247;-84
2022/07/30 03:29:24;;;;;;;0.50;0.50;;;;;;;;;;1863348;74;26218;-84
2022/07/30 03:31:53;;;;;;;0.42;0.42;;;;;;;;;;1877572;75;26297;-85
2022/07/30 03:34:20;;;;;;;0.40;0.40;;;;;;;;;;1852159;75;26243;-84
2022/07/30 03:36:48;;;;;;;0.50;0.50;;;;;;;;;;1878991;75;26295;-84
2022/07/30 03:39:16;;;;;;;0.47;0.47;;;;;;;;;;1873073;75;26387;-85
2022/07/30 03:41:44;;;;;;;0.50;0.50;;;;;;;;;;1875105;75;26257;-86
2022/07/30 03:44:11;;;;;;;0.40;0.40;;;;;;;;;;1860392;75;26307;-85
2022/07/30 03:46:40;;;;;;;0.40;0.40;;;;;;;;;;1861099;76;26705;-85
2022/07/30 03:49:08;;;;;;;0.40;0.40;;;;;;;;;;1853586;76;26315;-85
2022/07/30 03:51:36;;;;;;;0.50;0.50;;;;;;;;;;1841365;75;26285;-85
2022/07/30 03:54:08;;;;;;;0.50;0.50;;;;;;;;;;1849343;75;26747;-84
2022/07/30 03:56:33;;;;;;;0.40;0.40;;;;;;;;;;1847123;75;26776;-86
2022/07/30 03:59:01;;;;;;;0.50;0.50;;;;;;;;;;1864463;75;26181;-85
2022/07/30 04:01:28;;;;;;;0.50;0.50;;;;;;;;;;1860993;75;26756;-85
2022/07/30 04:03:56;;;;;;;0.60;0.60;;;;;;;;;;1861502;75;26237;-85
2022/07/30 04:06:23;;;;;;;0.47;0.47;;;;;;;;;;1852969;75;26270;-84
2022/07/30 04:08:50;;;;;;;0.50;0.50;;;;;;;;;;1866620;75;26303;-85
2022/07/30 04:11:18;;;;;;;0.60;0.60;;;;;;;;;;1860215;74;26300;-86
2022/07/30 04:13:45;;;;;;;0.80;0.53;;;;;;;;;;1848015;74;26268;-84
2022/07/30 04:16:17;;;;;;;0.60;0.60;;;;;;;;;;1864349;75;26249;-86
2022/07/30 04:18:46;;;;;;;0.50;0.50;;;;;;;;;;1863147;75;26705;-80
2022/07/30 04:21:15;;;;;;;0.50;0.50;;;;;;;;;;1857126;75;26254;-87
2022/07/30 04:23:43;;;;;;;0.50;0.50;;;;;;;;;;1865153;75;26263;-86
2022/07/30 04:26:11;;;;;;;0.70;0.70;;;;;;;;;;1855399;73;26309;-86
2022/07/30 04:28:38;;;;;;;0.50;0.50;;;;;;;;;;1871675;74;26270;-84
2022/07/30 04:31:06;;;;;;;0.50;0.50;;;;;;;;;;1856403;75;26269;-85
2022/07/30 04:33:33;;;;;;;0.50;0.50;;;;;;;;;;1857702;75;26359;-87
2022/07/30 04:36:02;;;;;;;0.60;0.60;;;;;;;;;;1845320;75;26218;-85
2022/07/30 04:38:30;;;;;;;0.50;0.50;;;;;;;;;;1865254;73;26239;-85
2022/07/30 04:40:57;;;;;;;0.50;0.50;;;;;;;;;;1851579;75;26302;-86
2022/07/30 04:43:24;;;;;;;0.45;0.45;;;;;;;;;;1848859;76;26273;-84
2022/07/30 04:45:51;;;;;;;0.50;0.50;;;;;;;;;;1860069;76;26336;-84
2022/07/30 04:48:19;;;;;;;0.60;0.60;;;;;;;;;;1863530;75;26737;-84
2022/07/30 04:50:48;;;;;;;0.60;0.60;;;;;;;;;;1857970;75;26265;-84
2022/07/30 04:53:15;;;;;;;0.47;0.47;;;;;;;;;;1864730;75;26246;-85
2022/07/30 04:55:44;;;;;;;0.60;0.60;;;;;;;;;;1867721;75;26230;-84
2022/07/30 04:58:13;;;;;;;0.45;0.45;;;;;;;;;;1860474;75;26340;-85
2022/07/30 05:00:41;;;;;;;0.60;0.60;;;;;;;;;;1872873;74;26261;-85
2022/07/30 05:03:10;;;;;;;0.60;0.60;;;;;;;;;;1851965;75;26810;-84
2022/07/30 05:05:37;;;;;;;0.60;0.60;;;;;;;;;;1855565;75;26825;-85
2022/07/30 05:08:04;;;;;;;0.55;0.55;;;;;;;;;;1857138;75;26233;-85
2022/07/30 05:10:32;;;;;;;0.50;0.50;;;;;;;;;;1860733;75;26284;-85
2022/07/30 05:12:59;;;;;;;0.50;0.50;;;;;;;;;;1841578;75;26429;-85
2022/07/30 05:15:28;;;;;;;0.68;0.68;;;;;;;;;;1852189;75;26326;-85
2022/07/30 05:17:56;;;;;;;0.60;0.60;;;;;;;;;;1834586;75;26244;-85
2022/07/30 05:20:23;;;;;;;0.65;0.65;;;;;;;;;;1856086;74;26270;-84
2022/07/30 05:22:50;;;;;;;0.70;0.70;;;;;;;;;;1835450;76;25656;-86
2022/07/30 05:25:17;;;;;;;0.60;0.60;;;;;;;;;;1856015;75;26726;-85
2022/07/30 05:27:45;;;;;;;0.65;0.60;;;;;;;;;;1844986;75;26347;-85
2022/07/30 05:30:12;;;;;;;0.60;0.60;;;;;;;;;;1854652;75;26246;-85
2022/07/30 05:32:39;;;;;;;0.60;0.60;;;;;;;;;;1845094;75;26238;-84
2022/07/30 05:35:07;;;;;;;0.70;0.70;;;;;;;;;;1878386;75;26250;-84
2022/07/30 05:37:34;;;;;;;0.75;0.75;;;;;;;;;;1860753;75;26756;-84
2022/07/30 05:40:01;;;;;;;0.62;0.62;;;;;;;;;;1858057;74;26260;-86
2022/07/30 05:42:31;;;;;;;0.60;0.60;;;;;;;;;;1841875;75;26302;-84
2022/07/30 05:44:59;;;;;;;0.70;0.70;;;;;;;;;;1870303;74;26247;-85
2022/07/30 05:47:26;;;;;;;0.70;0.70;;;;;;;;;;1855836;75;26292;-85
2022/07/30 05:49:53;;;;;;;0.50;0.50;;;;;;;;;;1855520;75;26188;-85
2022/07/30 05:52:20;;;;;;;0.70;0.70;;;;;;;;;;1841711;75;26327;-85
2022/07/30 05:54:48;;;;;;;0.70;0.70;;;;;;;;;;1856133;75;26336;-85
2022/07/30 05:57:15;;;;;;;0.60;0.60;;;;;;;;;;1852499;74;26271;-85
2022/07/30 05:59:42;;;;;;;0.70;0.70;;;;;;;;;;1848984;75;26748;-84
2022/07/30 06:02:09;;;;;;;0.70;0.70;;;;;;;;;;1849701;75;26729;-85
2022/07/30 06:04:37;;;;;;;0.78;0.78;;;;;;;;;;1863378;75;26840;-84
2022/07/30 06:07:04;;;;;;;0.60;0.60;;;;;;;;;;1852645;75;26207;-83
2022/07/30 06:09:32;;;;;;;0.70;0.70;;;;;;;;;;1868885;75;26179;-85
2022/07/30 06:11:59;;;;;;;0.70;0.70;;;;;;;;;;1864346;75;26207;-85
2022/07/30 06:14:26;;;;;;;0.60;0.60;;;;;;;;;;1849616;75;26319;-85
2022/07/30 06:16:54;;;;;;;0.80;0.80;;;;;;;;;;1852927;75;26304;-84
2022/07/30 06:19:21;;;;;;;0.70;0.70;;;;;;;;;;1851834;75;26346;-84
2022/07/30 06:21:49;;;;;;;0.70;0.70;;;;;;;;;;1866265;75;26359;-84
2022/07/30 06:24:16;;;;;;;0.70;0.70;;;;;;;;;;1865675;75;26249;-84
2022/07/30 06:26:43;;;;;;;0.70;0.70;;;;;;;;;;1858801;74;26310;-85
2022/07/30 06:29:10;;;;;;;0.60;0.60;;;;;;;;;;1878418;75;26238;-84
2022/07/30 06:31:39;;;;;;;0.70;0.70;;;;;;;;;;1859666;75;26234;-84
2022/07/30 06:34:06;;;;;;;0.72;0.72;;;;;;;;;;1872484;75;26242;-86
2022/07/30 06:36:34;;;;;;;1.20;0.55;;;;;;;;;;1865150;74;26353;-84
2022/07/30 06:39:01;;;;;;;0.80;0.80;;;;;;;;;;1867670;74;26385;-84
2022/07/30 06:41:28;;;;;;;0.50;0.50;;;;;;;;;;1873645;74;26386;-86
2022/07/30 06:43:56;;;;;;;0.70;0.70;;;;;;;;;;1861799;74;26232;-85
2022/07/30 06:46:23;;;;;;;0.60;0.60;;;;;;;;;;1868752;74;26308;-85
2022/07/30 06:48:50;;;;;;;1.80;0.60;;;;;;;;;;1855203;74;26299;-84
2022/07/30 06:51:18;;;;;;;0.62;0.60;;;;;;;;;;1856686;75;26681;-84
2022/07/30 06:53:45;;;;;;;2.10;0.70;;;;;;;;;;1848931;75;26633;-85
2022/07/30 06:56:12;;;;;;;0.90;0.70;;;;;;;;;;1872777;74;26695;-84
2022/07/30 06:58:40;;;;;;;1.80;0.60;;;;;;;;;;1882091;74;26391;-85
2022/07/30 07:01:07;;;;;;;0.95;0.60;;;;;;;;;;1860364;75;26696;-85
2022/07/30 07:03:34;;;;;;;0.60;0.60;;;;;;;;;;1877925;74;26855;-84
2022/07/30 07:06:04;;;;;;;0.62;0.62;;;;;;;;;;1871482;74;26683;-84
2022/07/30 07:08:30;;;;;;;0.60;0.60;;;;;;;;;;1870274;75;26254;-85
2022/07/30 07:10:58;;;;;;;0.60;0.60;;;;;;;;;;1868867;74;26237;-84
2022/07/30 07:13:25;;;;;;;0.60;0.60;;;;;;;;;;1880720;74;26311;-84
2022/07/30 07:15:52;;;;;;;4.30;0.80;;;;;;;;;;1864730;75;26221;-84
2022/07/30 07:18:20;;;;;;;6.05;0.72;;;;;;;;;;1871765;74;26721;-85
2022/07/30 07:20:47;;;;;;;0.65;0.65;;;;;;;;;;1873363;75;26203;-84
2022/07/30 07:23:14;;;;;;;2.17;0.60;;;;;;;;;;1876789;74;26300;-85
2022/07/30 07:25:42;;;;;;;1.15;0.65;;;;;;;;;;1879994;74;26237;-84
2022/07/30 07:28:09;;;;;;;0.60;0.60;;;;;;;;;;1880724;74;26166;-85
2022/07/30 07:30:36;;;;;;;0.80;0.70;;;;;;;;;;1870193;74;26299;-85
2022/07/30 07:33:03;;;;;;;0.60;0.60;;;;;;;;;;1867456;74;26746;-84
2022/07/30 07:35:31;;;;;;;0.65;0.50;;;;;;;;;;1875782;75;26268;-85
2022/07/30 07:37:58;;;;;;;2.42;0.70;;;;;;;;;;1874375;74;26228;-84
2022/07/30 07:40:25;;;;;;;2.08;0.78;;;;;;;;;;1863653;75;26238;-84
2022/07/30 07:42:53;;;;;;;0.60;0.60;;;;;;;;;;1862407;75;26304;-85
2022/07/30 07:45:20;;;;;;;0.70;0.70;;;;;;;;;;1856140;75;26284;-84
2022/07/30 07:47:48;;;;;;;0.80;0.70;;;;;;;;;;1856677;75;26245;-85
2022/07/30 07:50:16;;;;;;;1.17;0.70;;;;;;;;;;1848261;75;26290;-86
2022/07/30 07:52:44;;;;;;;0.60;0.60;;;;;;;;;;1859511;75;26289;-85
2022/07/30 07:55:11;;;;;;;0.95;0.70;;;;;;;;;;1856902;75;26347;-84
2022/07/30 07:57:40;;;;;;;1.17;0.70;;;;;;;;;;1850017;75;26254;-84
2022/07/30 08:00:08;;;;;;;0.80;0.80;;;;;;;;;;1864690;74;26726;-84
2022/07/30 08:02:36;;;;;;;0.60;0.60;;;;;;;;;;1872682;74;26282;-85
2022/07/30 08:05:04;;;;;;;0.60;0.60;;;;;;;;;;1854977;75;26322;-85
2022/07/30 08:07:31;;;;;;;0.65;0.65;;;;;;;;;;1862411;75;26272;-85
2022/07/30 08:09:59;;;;;;;0.60;0.60;;;;;;;;;;1866684;75;26631;-84
2022/07/30 08:12:26;;;;;;;1.72;0.70;;;;;;;;;;1874865;74;26278;-84
2022/07/30 08:14:54;;;;;;;0.60;0.60;;;;;;;;;;1855634;75;26210;-83
2022/07/30 08:17:21;;;;;;;0.57;0.57;;;;;;;;;;1861508;75;26248;-87
2022/07/30 08:19:48;;;;;;;5.17;0.90;;;;;;;;;;1838219;75;26236;-87
2022/07/30 08:22:16;;;;;;;2.05;0.60;;;;;;;;;;1867094;74;26177;-84
2022/07/30 08:24:43;;;;;;;0.75;0.75;;;;;;;;;;1868085;75;26318;-85
2022/07/30 08:27:10;;;;;;;0.88;0.70;;;;;;;;;;1862314;75;26321;-86
2022/07/30 08:29:38;;;;;;;1.37;0.65;;;;;;;;;;1864913;75;26741;-84
2022/07/30 08:32:05;;;;;;;1.25;0.70;;;;;;;;;;1860638;75;26645;-85
2022/07/30 08:34:32;;;;;;;0.93;0.70;;;;;;;;;;1861790;75;26239;-85
2022/07/30 08:37:00;;;;;;;3.30;0.88;;;;;;;;;;1853171;75;26393;-84
2022/07/30 08:39:27;;;;;;;1.22;0.80;;;;;;;;;;1850715;75;26309;-85
2022/07/30 08:41:54;;;;;;;0.80;0.80;;;;;;;;;;1858376;75;26667;-83
2022/07/30 08:44:22;;;;;;;2.50;0.80;;;;;;;;;;1845384;74;26301;-85
2022/07/30 08:46:55;;;;;;;3.77;0.78;;;;;;;;;;1860865;74;26307;-84
2022/07/30 08:49:20;;;;;;;2.00;0.80;;;;;;;;;;1856246;74;26312;-84
2022/07/30 08:51:48;;;;;;;0.98;0.90;;;;;;;;;;1843846;75;26202;-84
2022/07/30 08:54:15;;;;;;;4.15;0.85;;;;;;;;;;1858140;75;26323;-85
2022/07/30 08:56:44;;;;;;;1.70;0.78;;;;;;;;;;1847189;75;26339;-83
2022/07/30 08:59:11;;;;;;;3.05;0.88;;;;;;;;;;1848962;75;26263;-85
2022/07/30 09:01:38;;;;;;;3.70;0.80;;;;;;;;;;1867151;75;26343;-84
2022/07/30 09:04:06;;;;;;;1.17;0.75;;;;;;;;;;1875386;75;26211;-85
2022/07/30 09:06:33;;;;;;;0.78;0.78;;;;;;;;;;1878480;75;26806;-85
2022/07/30 09:09:00;;;;;;;2.60;0.70;;;;;;;;;;1865159;74;26255;-84
2022/07/30 09:11:28;;;;;;;0.80;0.80;;;;;;;;;;1877007;75;26368;-84
2022/07/30 09:13:55;;;;;;;0.70;0.70;;;;;;;;;;1868999;74;26821;-85
2022/07/30 09:16:23;;;;;;;1.17;0.60;;;;;;;;;;1872035;75;26781;-86
2022/07/30 09:18:51;;;;;;;2.70;0.80;;;;;;;;;;1863243;75;26371;-86
2022/07/30 09:21:27;;;;;;;0.70;0.70;;;;;;;;;;1876069;75;26269;-85
2022/07/30 09:23:55;;;;;;;1.45;0.80;;;;;;;;;;1871206;75;26662;-86
2022/07/30 09:26:22;;;;;;;2.20;0.70;;;;;;;;;;1885117;74;26803;-86
2022/07/30 09:28:50;;;;;;;0.57;0.57;;;;;;;;;;1888603;74;26269;-87
2022/07/30 09:31:17;;;;;;;1.65;0.70;;;;;;;;;;1873626;75;26214;-85
2022/07/30 09:33:45;;;;;;;1.45;0.75;;;;;;;;;;1882477;75;26241;-85
2022/07/30 09:36:14;;;;;;;0.60;0.60;;;;;;;;;;1866429;75;26828;-86
2022/07/30 09:38:43;;;;;;;2.27;0.85;;;;;;;;;;1864857;74;26245;-87
2022/07/30 09:41:11;;;;;;;0.78;0.78;;;;;;;;;;1878611;74;26355;-88
2022/07/30 09:43:43;;;;;;;1.45;0.62;;;;;;;;;;1852846;74;26657;-86
2022/07/30 09:46:10;;;;;;;0.85;0.70;;;;;;;;;;1865675;74;26702;-86
2022/07/30 09:48:38;;;;;;;0.70;0.70;;;;;;;;;;1867190;74;26331;-87
2022/07/30 09:51:05;;;;;;;0.60;0.60;;;;;;;;;;1872156;74;26270;-87
2022/07/30 09:53:33;;;;;;;1.80;0.80;;;;;;;;;;1865049;75;26301;-87
2022/07/30 09:56:00;;;;;;;1.65;0.70;;;;;;;;;;1877116;75;26230;-87
2022/07/30 09:58:40;;;;;;;0.62;0.62;;;;;;;;;;1870497;75;26710;-85
2022/07/30 10:01:08;;;;;;;0.78;0.78;;;;;;;;;;1870680;76;26254;-86
2022/07/30 10:03:37;;;;;;;1.05;0.60;;;;;;;;;;1874667;75;26751;-85
2022/07/30 10:06:04;;;;;;;0.80;0.80;;;;;;;;;;1882389;75;26246;-86
2022/07/30 10:08:38;;;;;;;1.05;0.70;;;;;;;;;;1865898;75;26293;-86
2022/07/30 10:11:06;;;;;;;0.70;0.70;;;;;;;;;;1877193;74;26298;-85
2022/07/30 10:13:34;;;;;;;0.70;0.70;;;;;;;;;;1861479;76;26218;-86
2022/07/30 10:16:02;;;;;;;1.25;0.70;;;;;;;;;;1844726;76;26662;-86
2022/07/30 10:18:30;;;;;;;1.82;0.60;;;;;;;;;;1853179;74;26295;-86
2022/07/30 10:21:00;;;;;;;0.70;0.70;;;;;;;;;;1851735;75;26626;-86
2022/07/30 10:23:31;;;;;;;0.72;0.62;;;;;;;;;;1849672;75;26238;-85
2022/07/30 10:25:59;;;;;;;0.70;0.70;;;;;;;;;;1858593;74;26296;-85
2022/07/30 10:28:28;;;;;;;0.70;0.70;;;;;;;;;;1863791;75;26214;-85
2022/07/30 10:30:57;;;;;;;0.65;0.65;;;;;;;;;;1857968;75;26325;-83
2022/07/30 10:33:28;;;;;;;0.80;0.80;;;;;;;;;;1856591;75;26216;-87
2022/07/30 10:35:56;;;;;;;0.80;0.80;;;;;;;;;;1862982;75;26435;-85
2022/07/30 10:38:32;;;;;;;0.90;0.75;;;;;;;;;;1842883;75;26778;-84
2022/07/30 10:41:06;;;;;;;0.60;0.60;;;;;;;;;;1865997;75;26310;-84
2022/07/30 10:43:35;;;;;;;0.68;0.68;;;;;;;;;;1850458;75;26634;-83
2022/07/30 10:46:19;;;;;;;0.70;0.70;;;;;;;;;;1804853;76;26225;-85
2022/07/30 10:48:46;;;;;;;1.20;0.80;;;;;;;;;;1839300;76;26259;-84
2022/07/30 10:51:13;;;;;;;0.70;0.70;;;;;;;;;;1839361;77;26767;-85
2022/07/30 10:53:45;;;;;;;1.37;0.60;;;;;;;;;;1816859;77;26280;-84
2022/07/30 10:56:12;;;;;;;0.95;0.80;;;;;;;;;;1846678;75;26875;-85
2022/07/30 10:58:58;;;;;;;0.70;0.70;;;;;;;;;;1869198;75;26204;-84
2022/07/30 11:01:25;;;;;;;0.70;0.70;;;;;;;;;;1863049;74;26224;-84
2022/07/30 11:04:10;;;;;;;0.50;0.50;;;;;;;;;;1874313;74;26272;-85
2022/07/30 11:06:38;;;;;;;0.78;0.78;;;;;;;;;;1858374;75;26680;-85
2022/07/30 11:09:06;;;;;;;0.68;0.68;;;;;;;;;;1875937;75;26682;-85
2022/07/30 11:11:38;;;;;;;0.62;0.62;;;;;;;;;;1860475;75;26704;-85
2022/07/30 11:14:05;;;;;;;0.65;0.65;;;;;;;;;;1876188;75;26315;-84
2022/07/30 11:16:34;;;;;;;0.60;0.60;;;;;;;;;;1875157;74;26270;-85
2022/07/30 11:19:03;;;;;;;0.62;0.62;;;;;;;;;;1880503;75;26241;-85
2022/07/30 11:21:31;;;;;;;1.02;0.60;;;;;;;;;;1876429;75;26220;-85
2022/07/30 11:23:59;;;;;;;0.72;0.72;;;;;;;;;;1854148;76;26659;-84
2022/07/30 11:26:45;;;;;;;0.80;0.78;;;;;;;;;;1857231;75;26206;-84
2022/07/30 11:29:10;;;;;;;0.40;0.40;;;;;;;;;;1864090;75;26174;-84
2022/07/30 11:31:38;;;;;;;0.60;0.60;;;;;;;;;;1863929;75;26210;-84
2022/07/30 11:34:24;;;;;;;0.53;0.53;;;;;;;;;;1869495;75;26193;-83
2022/07/30 11:37:03;;;;;;;0.60;0.60;;;;;;;;;;1878010;75;26325;-85
2022/07/30 11:39:49;;;;;;;0.70;0.70;;;;;;;;;;1887868;74;26242;-84
2022/07/30 11:42:29;;;;;;;1.25;0.60;;;;;;;;;;1872180;75;26234;-84
2022/07/30 11:45:19;;;;;;;1.10;0.60;;;;;;;;;;1869648;75;26293;-85
2022/07/30 11:47:50;;;;;;;0.50;0.50;;;;;;;;;;1883095;75;26732;-84
2022/07/30 11:50:21;;;;;;;0.60;0.60;;;;;;;;;;1870516;75;26214;-85
2022/07/30 11:52:49;;;;;;;0.65;0.65;;;;;;;;;;1884468;75;26697;-85
2022/07/30 11:55:27;;;;;;;0.80;0.80;;;;;;;;;;1866085;75;25997;-86
2022/07/30 11:57:55;;;;;;;0.70;0.70;;;;;;;;;;1877753;74;26827;-85
2022/07/30 12:00:22;;;;;;;0.65;0.65;;;;;;;;;;1877374;74;26269;-85
2022/07/30 12:02:49;;;;;;;0.70;0.70;;;;;;;;;;1871599;74;26301;-84
2022/07/30 12:05:18;;;;;;;0.70;0.70;;;;;;;;;;1858223;74;26639;-84
2022/07/30 12:07:46;;;;;;;1.70;0.70;;;;;;;;;;1853864;75;26285;-87
2022/07/30 12:10:13;;;;;;;0.60;0.60;;;;;;;;;;1850163;74;26277;-83
2022/07/30 12:12:41;;;;;;;0.60;0.60;;;;;;;;;;1871029;75;26621;-80
2022/07/30 12:15:08;;;;;;;2.50;0.60;;;;;;;;;;1860573;75;26345;-83
2022/07/30 12:17:44;;;;;;;0.75;0.60;;;;;;;;;;1867644;75;26263;-84
2022/07/30 12:20:18;;;;;;;0.85;0.85;;;;;;;;;;1873755;75;26304;-84
2022/07/30 12:22:46;;;;;;;0.70;0.70;;;;;;;;;;1862568;75;26654;-81
2022/07/30 12:25:13;;;;;;;0.75;0.75;;;;;;;;;;1842988;73;26262;-84
2022/07/30 12:27:42;;;;;;;0.70;0.70;;;;;;;;;;1846226;75;26214;-83
2022/07/30 12:30:10;;;;;;;0.75;0.75;;;;;;;;;;1874281;75;26369;-84
2022/07/30 12:32:37;;;;;;;0.70;0.70;;;;;;;;;;1843675;75;26218;-84
2022/07/30 12:35:04;;;;;;;0.62;0.62;;;;;;;;;;1851547;75;26673;-83
2022/07/30 12:37:32;;;;;;;0.70;0.70;;;;;;;;;;1857620;74;26329;-83
2022/07/30 12:40:06;;;;;;;1.07;0.60;;;;;;;;;;1858415;75;26268;-83
2022/07/30 12:42:33;;;;;;;0.70;0.70;;;;;;;;;;1872745;74;26236;-83
2022/07/30 12:45:01;;;;;;;0.70;0.70;;;;;;;;;;1855597;74;26310;-84
2022/07/30 12:47:33;;;;;;;0.70;0.68;;;;;;;;;;1860141;75;26615;-84
2022/07/30 12:50:01;;;;;;;1.42;1.05;;;;;;;;;;1849453;75;26341;-83
2022/07/30 12:52:32;;;;;;;0.70;0.70;;;;;;;;;;1857206;75;26274;-83
2022/07/30 12:55:04;;;;;;;0.95;0.70;;;;;;;;;;1854201;75;26648;-83
2022/07/30 12:57:49;;;;;;;0.80;0.80;;;;;;;;;;1874887;74;26291;-83
2022/07/30 13:00:16;;;;;;;0.65;0.65;;;;;;;;;;1851117;75;26338;-83
2022/07/30 13:02:43;;;;;;;0.60;0.60;;;;;;;;;;1808546;76;26245;-83
2022/07/30 13:05:11;;;;;;;0.70;0.70;;;;;;;;;;1853370;75;26339;-84
2022/07/30 13:07:55;;;;;;;0.70;0.70;;;;;;;;;;1876186;74;26786;-83
2022/07/30 13:10:22;;;;;;;0.70;0.70;;;;;;;;;;1871160;75;26358;-84
2022/07/30 13:12:49;;;;;;;0.75;0.75;;;;;;;;;;1878548;74;26265;-84
2022/07/30 13:15:20;;;;;;;0.80;0.80;;;;;;;;;;1874041;75;26730;-83
2022/07/30 13:17:48;;;;;;;0.62;0.62;;;;;;;;;;1871962;75;26701;-83
2022/07/30 13:20:16;;;;;;;1.65;0.80;;;;;;;;;;1872000;75;26206;-83
2022/07/30 13:22:44;;;;;;;0.80;0.80;;;;;;;;;;1872277;74;26696;-83
2022/07/30 13:25:11;;;;;;;0.70;0.70;;;;;;;;;;1875176;74;26755;-83
2022/07/30 13:27:39;;;;;;;0.90;0.90;;;;;;;;;;1881023;74;26212;-83
2022/07/30 13:30:06;;;;;;;1.50;0.80;;;;;;;;;;1863972;75;26733;-83
2022/07/30 13:32:34;;;;;;;0.88;0.88;;;;;;;;;;1868821;75;26688;-84
2022/07/30 13:35:02;;;;;;;0.70;0.70;;;;;;;;;;1872593;75;26299;-83
2022/07/30 13:37:29;;;;;;;0.95;0.90;;;;;;;;;;1870516;75;26340;-83
2022/07/30 13:39:56;;;;;;;1.47;0.75;;;;;;;;;;1868437;74;26336;-83
2022/07/30 13:42:23;;;;;;;0.68;0.68;;;;;;;;;;1874056;75;26256;-83
2022/07/30 13:44:51;;;;;;;0.70;0.70;;;;;;;;;;1866448;74;26292;-83
2022/07/30 13:47:18;;;;;;;4.00;0.90;;;;;;;;;;1873166;75;26354;-85
2022/07/30 13:49:48;;;;;;;1.42;1.00;;;;;;;;;;1865824;74;26685;-84
2022/07/30 13:52:14;;;;;;;1.42;0.75;;;;;;;;;;1864608;74;26264;-84
2022/07/30 13:54:42;;;;;;;4.00;1.00;;;;;;;;;;1871201;74;26346;-84
2022/07/30 13:57:09;;;;;;;0.90;0.90;;;;;;;;;;1864784;74;26241;-84
2022/07/30 13:59:36;;;;;;;1.15;0.90;;;;;;;;;;1873400;75;26283;-84
2022/07/30 14:02:03;;;;;;;1.10;0.82;;;;;;;;;;1871292;75;26256;-84
2022/07/30 14:04:31;;;;;;;0.80;0.80;;;;;;;;;;1874396;75;26301;-83
2022/07/30 14:06:58;;;;;;;0.80;0.80;;;;;;;;;;1863649;75;26221;-83
2022/07/30 14:09:25;;;;;;;1.65;0.90;;;;;;;;;;1880017;74;26229;-83
2022/07/30 14:11:53;;;;;;;1.40;0.85;;;;;;;;;;1875529;74;26223;-83
2022/07/30 14:14:21;;;;;;;0.72;0.72;;;;;;;;;;1874013;74;27093;-83
2022/07/30 14:16:51;;;;;;;1.47;0.80;;;;;;;;;;1867820;75;26663;-83
2022/07/30 14:19:18;;;;;;;0.98;0.90;;;;;;;;;;1878004;74;26245;-83
2022/07/30 14:21:46;;;;;;;0.80;0.80;;;;;;;;;;1876075;75;26221;-83
2022/07/30 14:24:15;;;;;;;0.80;0.80;;;;;;;;;;1882053;74;26318;-84
2022/07/30 14:26:42;;;;;;;1.85;0.90;;;;;;;;;;1875000;74;26281;-83
2022/07/30 14:29:10;;;;;;;0.80;0.72;;;;;;;;;;1876225;75;26218;-84
2022/07/30 14:31:37;;;;;;;0.80;0.80;;;;;;;;;;1875566;75;26289;-86
2022/07/30 14:34:04;;;;;;;0.90;0.90;;;;;;;;;;1858041;76;26340;-84
2022/07/30 14:36:33;;;;;;;7.10;1.10;;;;;;;;;;1865266;75;26961;-83
2022/07/30 14:39:04;;;;;;;2.00;1.10;;;;;;;;;;1881609;75;26394;-86
2022/07/30 14:41:29;;;;;;;5.40;1.20;;;;;;;;;;1855622;75;26309;-83
2022/07/30 14:43:56;;;;;;;2.33;1.15;;;;;;;;;;1863362;75;26240;-84
2022/07/30 14:46:24;;;;;;;6.08;1.17;;;;;;;;;;1896641;75;26204;-84
2022/07/30 14:48:51;;;;;;;1.85;1.00;;;;;;;;;;1885444;74;26329;-84
2022/07/30 14:51:18;;;;;;;1.02;1.02;;;;;;;;;;1861540;75;26311;-84